Phillipstown, Illinois
Current Conditions -  °F | °C
As of 8:55 PM on Tuesday 25 Nov 2014 (Local Time) from KCUL Reporting Station
Clear Clear  
Wind Chill: 27°   Ceiling: Unl
Heat Index: 27°   Visibility: 10mi
Dew Point: 26°   Wind: 3mph
Humidity: 97%   Direction: 30°NNE
Pressure: 30.21"   Gusts: NA
Location:  38.1681°N, 88.0517°W
Report Text: KCUL 260255Z AUTO 03003KT 10SM CLR M03/M03 A3021 RMK AO2 T10301034
Loading
Personal Weather Stations






























Interactive Weather Map New forecast layout! Learn more

10-Day Weather Forecast

Advertisements
Track Severe Weather on mobile